sensor_id;sensor_type;location;lat;lon;timestamp;pressure;altitude;pressure_sealevel;temperature
60003;BMP280;46322;52.018;8.702;2023-04-07T00:01:54;100212.66;;;15.10
60003;BMP280;46322;52.018;8.702;2023-04-07T00:06:55;100206.97;;;15.85
60003;BMP280;46322;52.018;8.702;2023-04-07T00:11:55;100204.34;;;14.64
60003;BMP280;46322;52.018;8.702;2023-04-07T00:16:55;100210.31;;;15.44
60003;BMP280;46322;52.018;8.702;2023-04-07T00:21:56;100203.22;;;15.32
60003;BMP280;46322;52.018;8.702;2023-04-07T00:26:56;100199.38;;;16.75
60003;BMP280;46322;52.018;8.702;2023-04-07T00:31:56;100199.09;;;15.92
60003;BMP280;46322;52.018;8.702;2023-04-07T00:36:56;100190.94;;;16.05
60003;BMP280;46322;52.018;8.702;2023-04-07T00:41:57;100193.91;;;15.26
60003;BMP280;46322;52.018;8.702;2023-04-07T00:46:57;100194.69;;;16.69
60003;BMP280;46322;52.018;8.702;2023-04-07T00:51:58;100191.19;;;17.17
60003;BMP280;46322;52.018;8.702;2023-04-07T00:56:58;100186.66;;;16.00
60003;BMP280;46322;52.018;8.702;2023-04-07T01:02:28;100178.09;;;15.52
60003;BMP280;46322;52.018;8.702;2023-04-07T01:07:39;100176.38;;;15.44
60003;BMP280;46322;52.018;8.702;2023-04-07T01:12:59;100174.34;;;15.38
60003;BMP280;46322;52.018;8.702;2023-04-07T01:18:12;100174.19;;;14.95
60003;BMP280;46322;52.018;8.702;2023-04-07T01:23:22;100164.78;;;15.56
60003;BMP280;46322;52.018;8.702;2023-04-07T01:33:44;100171.97;;;14.82
60003;BMP280;46322;52.018;8.702;2023-04-07T01:38:45;100166.00;;;15.39
60003;BMP280;46322;52.018;8.702;2023-04-07T01:43:46;100165.06;;;14.96
60003;BMP280;46322;52.018;8.702;2023-04-07T01:48:47;100169.78;;;15.03
60003;BMP280;46322;52.018;8.702;2023-04-07T01:53:48;100169.97;;;15.87
60003;BMP280;46322;52.018;8.702;2023-04-07T01:58:48;100162.41;;;14.96
60003;BMP280;46322;52.018;8.702;2023-04-07T02:09:06;100159.84;;;16.42
60003;BMP280;46322;52.018;8.702;2023-04-07T02:14:10;100164.72;;;15.91
60003;BMP280;46322;52.018;8.702;2023-04-07T02:19:11;100154.69;;;16.30
60003;BMP280;46322;52.018;8.702;2023-04-07T02:24:11;100151.78;;;17.55
60003;BMP280;46322;52.018;8.702;2023-04-07T02:29:11;100153.53;;;16.54
60003;BMP280;46322;52.018;8.702;2023-04-07T02:34:11;100150.69;;;16.20
60003;BMP280;46322;52.018;8.702;2023-04-07T02:39:12;100150.69;;;16.43
60003;BMP280;46322;52.018;8.702;2023-04-07T02:44:12;100156.41;;;17.21
60003;BMP280;46322;52.018;8.702;2023-04-07T02:49:12;100154.13;;;16.67
60003;BMP280;46322;52.018;8.702;2023-04-07T02:54:13;100151.59;;;16.51
60003;BMP280;46322;52.018;8.702;2023-04-07T02:59:13;100158.47;;;15.25
60003;BMP280;46322;52.018;8.702;2023-04-07T03:04:13;100146.66;;;16.30
60003;BMP280;46322;52.018;8.702;2023-04-07T03:09:13;100149.50;;;15.95
60003;BMP280;46322;52.018;8.702;2023-04-07T03:14:14;100150.91;;;16.84
60003;BMP280;46322;52.018;8.702;2023-04-07T03:19:14;100152.59;;;16.43
60003;BMP280;46322;52.018;8.702;2023-04-07T03:24:14;100147.31;;;16.46
60003;BMP280;46322;52.018;8.702;2023-04-07T03:29:15;100152.28;;;16.25
60003;BMP280;46322;52.018;8.702;2023-04-07T03:34:15;100142.03;;;16.27
60003;BMP280;46322;52.018;8.702;2023-04-07T03:39:15;100142.16;;;15.50
60003;BMP280;46322;52.018;8.702;2023-04-07T03:44:15;100150.34;;;15.99
60003;BMP280;46322;52.018;8.702;2023-04-07T03:49:16;100149.69;;;16.78
60003;BMP280;46322;52.018;8.702;2023-04-07T03:54:16;100160.72;;;16.23
60003;BMP280;46322;52.018;8.702;2023-04-07T03:59:16;100150.34;;;15.99
60003;BMP280;46322;52.018;8.702;2023-04-07T04:04:17;100156.25;;;15.47
60003;BMP280;46322;52.018;8.702;2023-04-07T04:09:17;100162.75;;;14.95
60003;BMP280;46322;52.018;8.702;2023-04-07T04:14:17;100159.50;;;15.79
60003;BMP280;46322;52.018;8.702;2023-04-07T04:19:17;100165.81;;;14.97
60003;BMP280;46322;52.018;8.702;2023-04-07T04:24:18;100158.50;;;16.29
60003;BMP280;46322;52.018;8.702;2023-04-07T04:29:18;100173.28;;;14.88
60003;BMP280;46322;52.018;8.702;2023-04-07T04:34:18;100167.19;;;15.22
60003;BMP280;46322;52.018;8.702;2023-04-07T04:39:18;100165.72;;;14.58
60003;BMP280;46322;52.018;8.702;2023-04-07T04:44:19;100178.28;;;15.09
60003;BMP280;46322;52.018;8.702;2023-04-07T04:49:19;100183.25;;;14.75
60003;BMP280;46322;52.018;8.702;2023-04-07T04:54:19;100173.34;;;16.04
60003;BMP280;46322;52.018;8.702;2023-04-07T04:59:19;100179.22;;;16.58
60003;BMP280;46322;52.018;8.702;2023-04-07T05:04:20;100171.44;;;16.04
60003;BMP280;46322;52.018;8.702;2023-04-07T05:09:20;100185.00;;;15.53
60003;BMP280;46322;52.018;8.702;2023-04-07T05:14:20;100188.03;;;14.85
60003;BMP280;46322;52.018;8.702;2023-04-07T05:19:20;100184.00;;;15.42
60003;BMP280;46322;52.018;8.702;2023-04-07T05:24:21;100183.25;;;16.26
60003;BMP280;46322;52.018;8.702;2023-04-07T05:29:21;100191.47;;;16.37
60003;BMP280;46322;52.018;8.702;2023-04-07T05:34:22;100197.53;;;16.56
60003;BMP280;46322;52.018;8.702;2023-04-07T05:39:22;100192.34;;;15.98
60003;BMP280;46322;52.018;8.702;2023-04-07T05:44:23;100199.28;;;15.80
60003;BMP280;46322;52.018;8.702;2023-04-07T05:49:23;100199.16;;;16.15
60003;BMP280;46322;52.018;8.702;2023-04-07T05:54:23;100203.69;;;16.15
60003;BMP280;46322;52.018;8.702;2023-04-07T05:59:23;100207.28;;;15.80
60003;BMP280;46322;52.018;8.702;2023-04-07T06:04:24;100210.63;;;16.16
60003;BMP280;46322;52.018;8.702;2023-04-07T06:09:24;100218.75;;;15.81
60003;BMP280;46322;52.018;8.702;2023-04-07T06:14:24;100221.25;;;16.58
60003;BMP280;46322;52.018;8.702;2023-04-07T06:19:24;100226.75;;;16.00
60003;BMP280;46322;52.018;8.702;2023-04-07T06:24:25;100233.88;;;15.38
60003;BMP280;46322;52.018;8.702;2023-04-07T06:29:25;100239.88;;;16.09
60003;BMP280;46322;52.018;8.702;2023-04-07T06:34:25;100236.66;;;16.00
60003;BMP280;46322;52.018;8.702;2023-04-07T06:39:26;100236.13;;;17.31
60003;BMP280;46322;52.018;8.702;2023-04-07T06:44:26;100247.84;;;15.86
60003;BMP280;46322;52.018;8.702;2023-04-07T06:49:26;100246.34;;;16.73
60003;BMP280;46322;52.018;8.702;2023-04-07T06:54:27;100250.59;;;16.74
60003;BMP280;46322;52.018;8.702;2023-04-07T06:59:27;100253.91;;;16.44
60003;BMP280;46322;52.018;8.702;2023-04-07T07:04:27;100258.25;;;15.52
60003;BMP280;46322;52.018;8.702;2023-04-07T07:09:27;100258.84;;;16.42
60003;BMP280;46322;52.018;8.702;2023-04-07T07:14:28;100255.81;;;15.28
60003;BMP280;46322;52.018;8.702;2023-04-07T07:19:28;100270.91;;;17.01
60003;BMP280;46322;52.018;8.702;2023-04-07T07:24:29;100274.72;;;15.93
60003;BMP280;46322;52.018;8.702;2023-04-07T07:29:29;100279.25;;;16.31
60003;BMP280;46322;52.018;8.702;2023-04-07T07:34:30;100282.94;;;17.67
60003;BMP280;46322;52.018;8.702;2023-04-07T07:39:31;100283.56;;;17.57
60003;BMP280;46322;52.018;8.702;2023-04-07T07:44:31;100294.78;;;17.40
60003;BMP280;46322;52.018;8.702;2023-04-07T07:49:31;100299.50;;;18.98
60003;BMP280;46322;52.018;8.702;2023-04-07T07:54:32;100303.00;;;17.50
60003;BMP280;46322;52.018;8.702;2023-04-07T07:59:32;100306.44;;;17.51
60003;BMP280;46322;52.018;8.702;2023-04-07T08:04:34;100307.38;;;17.65
60003;BMP280;46322;52.018;8.702;2023-04-07T08:09:35;100309.25;;;18.69
60003;BMP280;46322;52.018;8.702;2023-04-07T08:14:36;100316.81;;;18.56
60003;BMP280;46322;52.018;8.702;2023-04-07T08:19:36;100318.84;;;19.21
60003;BMP280;46322;52.018;8.702;2023-04-07T08:24:37;100324.59;;;19.20
60003;BMP280;46322;52.018;8.702;2023-04-07T08:29:37;100320.97;;;19.56
60003;BMP280;46322;52.018;8.702;2023-04-07T08:34:37;100321.88;;;19.99
60003;BMP280;46322;52.018;8.702;2023-04-07T08:39:37;100335.03;;;20.36
60003;BMP280;46322;52.018;8.702;2023-04-07T08:44:38;100322.53;;;17.81
60003;BMP280;46322;52.018;8.702;2023-04-07T08:49:39;100327.91;;;17.81
60003;BMP280;46322;52.018;8.702;2023-04-07T08:54:41;100334.28;;;17.20
60003;BMP280;46322;52.018;8.702;2023-04-07T08:59:42;100346.69;;;18.95
60003;BMP280;46322;52.018;8.702;2023-04-07T09:04:43;100336.91;;;18.77
60003;BMP280;46322;52.018;8.702;2023-04-07T09:09:43;100330.25;;;17.29
60003;BMP280;46322;52.018;8.702;2023-04-07T09:14:43;100341.94;;;19.26
60003;BMP280;46322;52.018;8.702;2023-04-07T09:19:44;100353.69;;;19.73
60003;BMP280;46322;52.018;8.702;2023-04-07T09:24:44;100357.03;;;19.52
60003;BMP280;46322;52.018;8.702;2023-04-07T09:29:46;100351.56;;;17.75
60003;BMP280;46322;52.018;8.702;2023-04-07T09:34:57;100350.47;;;18.10
60003;BMP280;46322;52.018;8.702;2023-04-07T09:39:57;100357.16;;;18.63
60003;BMP280;46322;52.018;8.702;2023-04-07T09:44:59;100358.63;;;19.05
60003;BMP280;46322;52.018;8.702;2023-04-07T09:49:59;100365.19;;;19.66
60003;BMP280;46322;52.018;8.702;2023-04-07T09:54:59;100363.91;;;20.86
60003;BMP280;46322;52.018;8.702;2023-04-07T10:00:00;100359.06;;;18.63
60003;BMP280;46322;52.018;8.702;2023-04-07T10:05:01;100360.88;;;18.52
60003;BMP280;46322;52.018;8.702;2023-04-07T10:10:03;100356.63;;;18.47
60003;BMP280;46322;52.018;8.702;2023-04-07T10:15:03;100363.38;;;19.22
60003;BMP280;46322;52.018;8.702;2023-04-07T10:20:06;100363.25;;;19.05
60003;BMP280;46322;52.018;8.702;2023-04-07T10:25:11;100369.56;;;20.06
60003;BMP280;46322;52.018;8.702;2023-04-07T10:30:16;100377.44;;;19.05
60003;BMP280;46322;52.018;8.702;2023-04-07T10:35:17;100369.34;;;18.98
60003;BMP280;46322;52.018;8.702;2023-04-07T10:51:10;100378.91;;;20.62
60003;BMP280;46322;52.018;8.702;2023-04-07T10:56:11;100389.31;;;20.67
60003;BMP280;46322;52.018;8.702;2023-04-07T11:06:12;100385.47;;;20.89
60003;BMP280;46322;52.018;8.702;2023-04-07T11:11:14;100382.38;;;20.98
60003;BMP280;46322;52.018;8.702;2023-04-07T11:16:16;100392.75;;;20.96
60003;BMP280;46322;52.018;8.702;2023-04-07T11:21:18;100390.22;;;21.90
60003;BMP280;46322;52.018;8.702;2023-04-07T11:26:18;100381.75;;;21.81
60003;BMP280;46322;52.018;8.702;2023-04-07T11:31:21;100387.00;;;21.19
60003;BMP280;46322;52.018;8.702;2023-04-07T11:41:27;100394.25;;;23.84
60003;BMP280;46322;52.018;8.702;2023-04-07T11:46:28;100387.13;;;22.50
60003;BMP280;46322;52.018;8.702;2023-04-07T11:51:28;100392.41;;;22.16
60003;BMP280;46322;52.018;8.702;2023-04-07T11:56:29;100395.09;;;20.97
60003;BMP280;46322;52.018;8.702;2023-04-07T12:01:40;100395.75;;;23.85
60003;BMP280;46322;52.018;8.702;2023-04-07T12:06:40;100393.28;;;22.51
60003;BMP280;46322;52.018;8.702;2023-04-07T12:11:48;100398.19;;;24.06
60003;BMP280;46322;52.018;8.702;2023-04-07T12:16:48;100402.84;;;23.45
60003;BMP280;46322;52.018;8.702;2023-04-07T12:21:48;100402.53;;;24.00
60003;BMP280;46322;52.018;8.702;2023-04-07T12:26:49;100396.16;;;22.81
60003;BMP280;46322;52.018;8.702;2023-04-07T12:31:49;100405.06;;;23.19
60003;BMP280;46322;52.018;8.702;2023-04-07T12:36:50;100403.81;;;27.35
60003;BMP280;46322;52.018;8.702;2023-04-07T12:41:50;100406.66;;;26.13
60003;BMP280;46322;52.018;8.702;2023-04-07T12:46:50;100410.22;;;25.57
60003;BMP280;46322;52.018;8.702;2023-04-07T12:51:50;100417.03;;;26.02
60003;BMP280;46322;52.018;8.702;2023-04-07T12:56:51;100408.19;;;25.45
60003;BMP280;46322;52.018;8.702;2023-04-07T13:01:52;100415.41;;;26.82
60003;BMP280;46322;52.018;8.702;2023-04-07T13:06:52;100421.78;;;25.62
60003;BMP280;46322;52.018;8.702;2023-04-07T13:11:52;100407.44;;;27.83
60003;BMP280;46322;52.018;8.702;2023-04-07T13:16:52;100401.16;;;31.62
60003;BMP280;46322;52.018;8.702;2023-04-07T13:21:53;100406.13;;;27.87
60003;BMP280;46322;52.018;8.702;2023-04-07T13:26:53;100408.56;;;30.27
60003;BMP280;46322;52.018;8.702;2023-04-07T13:32:03;100393.13;;;28.17
60003;BMP280;46322;52.018;8.702;2023-04-07T13:37:04;100409.72;;;24.60
60003;BMP280;46322;52.018;8.702;2023-04-07T13:42:04;100409.59;;;23.26
60003;BMP280;46322;52.018;8.702;2023-04-07T13:47:05;100407.78;;;24.61
60003;BMP280;46322;52.018;8.702;2023-04-07T13:52:05;100400.66;;;23.36
60003;BMP280;46322;52.018;8.702;2023-04-07T13:57:05;100404.50;;;24.50
60003;BMP280;46322;52.018;8.702;2023-04-07T14:02:06;100413.69;;;30.43
60003;BMP280;46322;52.018;8.702;2023-04-07T14:07:06;100411.28;;;34.59
60003;BMP280;46322;52.018;8.702;2023-04-07T14:12:06;100408.25;;;34.26
60003;BMP280;46322;52.018;8.702;2023-04-07T14:17:06;100408.56;;;30.36
60003;BMP280;46322;52.018;8.702;2023-04-07T14:22:07;100393.19;;;29.35
60003;BMP280;46322;52.018;8.702;2023-04-07T14:27:07;100390.66;;;28.31
60003;BMP280;46322;52.018;8.702;2023-04-07T14:32:07;100400.44;;;24.11
60003;BMP280;46322;52.018;8.702;2023-04-07T14:37:07;100413.88;;;26.03
60003;BMP280;46322;52.018;8.702;2023-04-07T14:42:07;100414.44;;;29.40
60003;BMP280;46322;52.018;8.702;2023-04-07T14:47:08;100401.75;;;28.71
60003;BMP280;46322;52.018;8.702;2023-04-07T14:52:08;100400.34;;;26.93
60003;BMP280;46322;52.018;8.702;2023-04-07T14:57:08;100399.97;;;28.99
60003;BMP280;46322;52.018;8.702;2023-04-07T15:02:08;100407.25;;;27.23
60003;BMP280;46322;52.018;8.702;2023-04-07T15:07:09;100408.63;;;27.69
60003;BMP280;46322;52.018;8.702;2023-04-07T15:12:09;100412.59;;;26.56
60003;BMP280;46322;52.018;8.702;2023-04-07T15:17:09;100417.28;;;28.40
60003;BMP280;46322;52.018;8.702;2023-04-07T15:22:09;100417.91;;;27.18
60003;BMP280;46322;52.018;8.702;2023-04-07T15:27:10;100415.63;;;27.70
60003;BMP280;46322;52.018;8.702;2023-04-07T15:32:10;100427.13;;;26.17
60003;BMP280;46322;52.018;8.702;2023-04-07T15:37:10;100423.59;;;26.94
60003;BMP280;46322;52.018;8.702;2023-04-07T15:42:10;100416.50;;;26.39
60003;BMP280;46322;52.018;8.702;2023-04-07T15:47:11;100416.09;;;24.27
60003;BMP280;46322;52.018;8.702;2023-04-07T15:52:12;100427.66;;;23.70
60003;BMP280;46322;52.018;8.702;2023-04-07T15:57:12;100436.03;;;23.11
60003;BMP280;46322;52.018;8.702;2023-04-07T16:02:13;100437.59;;;24.11
60003;BMP280;46322;52.018;8.702;2023-04-07T16:07:14;100433.53;;;23.65
60003;BMP280;46322;52.018;8.702;2023-04-07T16:12:14;100439.50;;;22.67
60003;BMP280;46322;52.018;8.702;2023-04-07T16:17:14;100450.69;;;22.69
60003;BMP280;46322;52.018;8.702;2023-04-07T16:22:15;100443.91;;;22.43
60003;BMP280;46322;52.018;8.702;2023-04-07T16:27:15;100458.94;;;23.00
60003;BMP280;46322;52.018;8.702;2023-04-07T16:32:15;100463.81;;;22.67
60003;BMP280;46322;52.018;8.702;2023-04-07T16:37:15;100468.38;;;24.20
60003;BMP280;46322;52.018;8.702;2023-04-07T16:42:15;100464.75;;;22.39
60003;BMP280;46322;52.018;8.702;2023-04-07T16:47:16;100471.41;;;23.31
60003;BMP280;46322;52.018;8.702;2023-04-07T16:52:17;100481.09;;;22.80
60003;BMP280;46322;52.018;8.702;2023-04-07T16:57:17;100488.78;;;22.23
60003;BMP280;46322;52.018;8.702;2023-04-07T17:02:18;100495.06;;;22.72
60003;BMP280;46322;52.018;8.702;2023-04-07T17:07:18;100504.38;;;21.69
60003;BMP280;46322;52.018;8.702;2023-04-07T17:12:18;100507.47;;;22.62
60003;BMP280;46322;52.018;8.702;2023-04-07T17:17:19;100521.91;;;23.79
60003;BMP280;46322;52.018;8.702;2023-04-07T17:22:19;100519.94;;;24.13
60003;BMP280;46322;52.018;8.702;2023-04-07T17:27:19;100536.09;;;24.77
60003;BMP280;46322;52.018;8.702;2023-04-07T17:32:20;100535.97;;;26.79
60003;BMP280;46322;52.018;8.702;2023-04-07T17:37:21;100543.28;;;25.14
60003;BMP280;46322;52.018;8.702;2023-04-07T17:42:21;100550.97;;;23.34
60003;BMP280;46322;52.018;8.702;2023-04-07T17:47:21;100555.53;;;22.92
60003;BMP280;46322;52.018;8.702;2023-04-07T17:52:21;100569.78;;;22.30
60003;BMP280;46322;52.018;8.702;2023-04-07T17:57:22;100567.59;;;21.72
60003;BMP280;46322;52.018;8.702;2023-04-07T18:02:22;100576.66;;;20.57
60003;BMP280;46322;52.018;8.702;2023-04-07T18:07:22;100588.38;;;21.96
60003;BMP280;46322;52.018;8.702;2023-04-07T18:12:23;100591.13;;;21.50
60003;BMP280;46322;52.018;8.702;2023-04-07T18:17:23;100600.72;;;22.01
60003;BMP280;46322;52.018;8.702;2023-04-07T18:22:24;100607.91;;;22.50
60003;BMP280;46322;52.018;8.702;2023-04-07T18:27:25;100616.47;;;22.34
60003;BMP280;46322;52.018;8.702;2023-04-07T18:32:25;100616.13;;;22.14
60003;BMP280;46322;52.018;8.702;2023-04-07T18:37:26;100623.50;;;21.82
60003;BMP280;46322;52.018;8.702;2023-04-07T18:42:26;100628.88;;;21.39
60003;BMP280;46322;52.018;8.702;2023-04-07T18:47:26;100640.69;;;20.99
60003;BMP280;46322;52.018;8.702;2023-04-07T18:52:27;100645.28;;;20.85
60003;BMP280;46322;52.018;8.702;2023-04-07T18:57:27;100649.97;;;20.29
60003;BMP280;46322;52.018;8.702;2023-04-07T19:02:27;100664.75;;;19.98
60003;BMP280;46322;52.018;8.702;2023-04-07T19:07:27;100662.03;;;19.95
60003;BMP280;46322;52.018;8.702;2023-04-07T19:12:28;100671.34;;;20.04
60003;BMP280;46322;52.018;8.702;2023-04-07T19:17:28;100678.81;;;19.81
60003;BMP280;46322;52.018;8.702;2023-04-07T19:22:28;100682.34;;;19.89
60003;BMP280;46322;52.018;8.702;2023-04-07T19:27:29;100682.28;;;19.78
60003;BMP280;46322;52.018;8.702;2023-04-07T19:32:29;100682.66;;;19.80
60003;BMP280;46322;52.018;8.702;2023-04-07T19:37:29;100684.19;;;19.81
60003;BMP280;46322;52.018;8.702;2023-04-07T19:42:30;100698.44;;;19.45
60003;BMP280;46322;52.018;8.702;2023-04-07T19:47:30;100704.47;;;19.34
60003;BMP280;46322;52.018;8.702;2023-04-07T19:52:31;100706.75;;;19.36
60003;BMP280;46322;52.018;8.702;2023-04-07T19:57:31;100705.28;;;19.39
60003;BMP280;46322;52.018;8.702;2023-04-07T20:02:32;100707.78;;;18.94
60003;BMP280;46322;52.018;8.702;2023-04-07T20:07:32;100721.28;;;18.72
60003;BMP280;46322;52.018;8.702;2023-04-07T20:12:32;100722.13;;;18.76
60003;BMP280;46322;52.018;8.702;2023-04-07T20:17:33;100724.22;;;18.63
60003;BMP280;46322;52.018;8.702;2023-04-07T20:22:34;100735.06;;;18.70
60003;BMP280;46322;52.018;8.702;2023-04-07T20:27:34;100740.09;;;18.72
60003;BMP280;46322;52.018;8.702;2023-04-07T20:32:34;100741.31;;;18.06
60003;BMP280;46322;52.018;8.702;2023-04-07T20:37:34;100737.94;;;17.89
60003;BMP280;46322;52.018;8.702;2023-04-07T20:42:35;100745.38;;;17.57
60003;BMP280;46322;52.018;8.702;2023-04-07T20:47:35;100738.50;;;17.60
60003;BMP280;46322;52.018;8.702;2023-04-07T20:52:35;100759.13;;;17.56
60003;BMP280;46322;52.018;8.702;2023-04-07T20:57:36;100749.13;;;17.18
60003;BMP280;46322;52.018;8.702;2023-04-07T21:02:37;100758.50;;;16.61
60003;BMP280;46322;52.018;8.702;2023-04-07T21:07:37;100761.94;;;15.62
60003;BMP280;46322;52.018;8.702;2023-04-07T21:12:37;100766.69;;;17.15
60003;BMP280;46322;52.018;8.702;2023-04-07T21:17:38;100766.16;;;16.94
60003;BMP280;46322;52.018;8.702;2023-04-07T21:22:38;100769.28;;;16.96
60003;BMP280;46322;52.018;8.702;2023-04-07T21:27:38;100769.19;;;16.92
60003;BMP280;46322;52.018;8.702;2023-04-07T21:32:39;100780.06;;;16.84
60003;BMP280;46322;52.018;8.702;2023-04-07T21:37:39;100780.78;;;16.65
60003;BMP280;46322;52.018;8.702;2023-04-07T21:42:39;100784.81;;;17.22
60003;BMP280;46322;52.018;8.702;2023-04-07T21:47:39;100783.09;;;16.07
60003;BMP280;46322;52.018;8.702;2023-04-07T21:52:40;100784.91;;;16.47
60003;BMP280;46322;52.018;8.702;2023-04-07T21:57:40;100790.47;;;16.70
60003;BMP280;46322;52.018;8.702;2023-04-07T22:02:40;100787.50;;;17.06
60003;BMP280;46322;52.018;8.702;2023-04-07T22:07:41;100791.91;;;16.67
60003;BMP280;46322;52.018;8.702;2023-04-07T22:12:41;100801.69;;;16.31
60003;BMP280;46322;52.018;8.702;2023-04-07T22:17:42;100803.78;;;16.38
60003;BMP280;46322;52.018;8.702;2023-04-07T22:22:42;100804.50;;;16.35
60003;BMP280;46322;52.018;8.702;2023-04-07T22:27:42;100807.72;;;16.56
60003;BMP280;46322;52.018;8.702;2023-04-07T22:32:42;100809.25;;;16.57
60003;BMP280;46322;52.018;8.702;2023-04-07T22:37:43;100810.88;;;16.46
60003;BMP280;46322;52.018;8.702;2023-04-07T22:42:43;100815.38;;;15.86
60003;BMP280;46322;52.018;8.702;2023-04-07T22:47:43;100818.56;;;16.20
60003;BMP280;46322;52.018;8.702;2023-04-07T22:52:43;100811.72;;;16.07
60003;BMP280;46322;52.018;8.702;2023-04-07T22:57:44;100825.16;;;16.22
60003;BMP280;46322;52.018;8.702;2023-04-07T23:02:44;100824.09;;;16.11
60003;BMP280;46322;52.018;8.702;2023-04-07T23:07:44;100833.50;;;15.93
60003;BMP280;46322;52.018;8.702;2023-04-07T23:12:44;100829.47;;;15.99
60003;BMP280;46322;52.018;8.702;2023-04-07T23:17:45;100836.16;;;15.93
60003;BMP280;46322;52.018;8.702;2023-04-07T23:22:45;100848.66;;;15.77
60003;BMP280;46322;52.018;8.702;2023-04-07T23:27:45;100847.09;;;15.76
60003;BMP280;46322;52.018;8.702;2023-04-07T23:32:45;100846.91;;;16.09
60003;BMP280;46322;52.018;8.702;2023-04-07T23:37:46;100846.47;;;15.54
60003;BMP280;46322;52.018;8.702;2023-04-07T23:42:46;100849.94;;;16.63
60003;BMP280;46322;52.018;8.702;2023-04-07T23:47:46;100851.44;;;16.76
60003;BMP280;46322;52.018;8.702;2023-04-07T23:52:46;100854.63;;;17.13
60003;BMP280;46322;52.018;8.702;2023-04-07T23:57:47;100857.25;;;17.10
